createdAt,value
2023-05-11T00:02:05.331Z,7.80
2023-05-11T00:04:53.939Z,7.75
2023-05-11T00:07:23.208Z,7.72
2023-05-11T00:09:51.206Z,7.68
2023-05-11T00:12:39.277Z,7.62
2023-05-11T00:15:10.791Z,7.57
2023-05-11T00:18:23.655Z,7.53
2023-05-11T00:21:02.483Z,7.49
2023-05-11T00:24:22.008Z,7.53
2023-05-11T00:27:13.611Z,7.57
2023-05-11T00:29:43.196Z,7.58
2023-05-11T00:32:11.976Z,7.51
2023-05-11T00:34:41.473Z,7.43
2023-05-11T00:37:08.699Z,7.39
2023-05-11T00:39:39.850Z,7.35
2023-05-11T00:42:26.701Z,7.28
2023-05-11T00:44:56.165Z,7.21
2023-05-11T00:47:24.837Z,7.17
2023-05-11T00:50:12.263Z,7.12
2023-05-11T00:52:41.179Z,7.10
2023-05-11T00:55:09.769Z,7.12
2023-05-11T00:57:41.575Z,7.15
2023-05-11T01:00:09.837Z,7.18
2023-05-11T01:02:42.404Z,7.20
2023-05-11T01:05:11.937Z,7.20
2023-05-11T01:08:17.995Z,7.14
2023-05-11T01:11:38.065Z,7.07
2023-05-11T01:14:10.062Z,7.03
2023-05-11T01:16:40.491Z,6.99
2023-05-11T01:19:15.053Z,6.95
2023-05-11T01:21:43.612Z,6.93
2023-05-11T01:24:49.519Z,6.94
2023-05-11T01:27:58.641Z,6.90
2023-05-11T01:30:40.252Z,6.86
2023-05-11T01:33:27.338Z,6.76
2023-05-11T01:35:55.774Z,6.73
2023-05-11T01:38:24.264Z,6.70
2023-05-11T01:41:16.206Z,6.67
2023-05-11T01:43:48.278Z,6.66
2023-05-11T01:46:26.806Z,6.68
2023-05-11T01:48:56.601Z,6.71
2023-05-11T01:51:28.864Z,6.78
2023-05-11T01:53:57.492Z,6.80
2023-05-11T01:56:28.709Z,6.83
2023-05-11T01:58:56.998Z,6.85
2023-05-11T02:01:24.988Z,6.85
2023-05-11T02:03:52.217Z,6.79
2023-05-11T02:06:20.845Z,6.72
2023-05-11T02:08:48.052Z,6.61
2023-05-11T02:11:15.563Z,6.58
2023-05-11T02:13:44.983Z,6.60
2023-05-11T02:16:15.069Z,6.62
2023-05-11T02:18:42.266Z,6.64
2023-05-11T02:21:10.365Z,6.72
2023-05-11T02:23:38.703Z,6.77
2023-05-11T02:26:06.546Z,6.78
2023-05-11T02:28:36.102Z,6.78
2023-05-11T02:31:07.942Z,6.75
2023-05-11T02:33:39.565Z,6.70
2023-05-11T02:36:08.172Z,6.69
2023-05-11T02:38:37.017Z,6.72
2023-05-11T02:41:12.021Z,6.77
2023-05-11T02:43:44.239Z,6.78
2023-05-11T02:46:23.140Z,6.75
2023-05-11T02:48:55.342Z,6.73
2023-05-11T02:51:27.745Z,6.72
2023-05-11T02:53:57.826Z,6.72
2023-05-11T02:56:27.222Z,6.75
2023-05-11T02:58:54.609Z,6.78
2023-05-11T03:01:24.740Z,6.82
2023-05-11T03:04:06.164Z,6.89
2023-05-11T03:06:35.561Z,6.97
2023-05-11T03:09:09.339Z,7.08
2023-05-11T03:11:57.401Z,7.22
2023-05-11T03:14:24.598Z,7.33
2023-05-11T03:16:57.408Z,7.43
2023-05-11T03:19:27.685Z,7.50
2023-05-11T03:21:55.781Z,7.57
2023-05-11T03:24:28.355Z,7.63
2023-05-11T03:26:56.683Z,7.71
2023-05-11T03:29:44.840Z,7.82
2023-05-11T03:32:14.728Z,7.96
2023-05-11T03:35:24.239Z,8.09
2023-05-11T03:38:00.453Z,8.25
2023-05-11T03:40:32.080Z,8.36
2023-05-11T03:43:19.588Z,8.45
2023-05-11T03:45:50.038Z,8.53
2023-05-11T03:48:22.500Z,8.62
2023-05-11T03:50:53.445Z,8.69
2023-05-11T03:53:21.187Z,8.76
2023-05-11T03:55:50.285Z,8.82
2023-05-11T03:58:18.312Z,8.94
2023-05-11T04:00:45.602Z,9.06
2023-05-11T04:03:13.774Z,9.17
2023-05-11T04:05:44.403Z,9.29
2023-05-11T04:08:13.254Z,9.38
2023-05-11T04:10:43.402Z,9.48
2023-05-11T04:13:16.084Z,9.55
2023-05-11T04:15:45.166Z,9.66
2023-05-11T04:18:12.865Z,9.78
2023-05-11T04:20:42.297Z,9.89
2023-05-11T04:24:01.531Z,10.04
2023-05-11T04:26:32.860Z,10.21
2023-05-11T04:29:00.569Z,10.44
2023-05-11T04:31:29.872Z,10.64
2023-05-11T04:33:58.933Z,10.78
2023-05-11T04:36:30.224Z,10.89
2023-05-11T04:39:17.515Z,10.92
2023-05-11T04:41:45.778Z,10.96
2023-05-11T04:44:13.053Z,11.06
2023-05-11T04:46:40.945Z,11.15
2023-05-11T04:49:13.176Z,11.21
2023-05-11T04:51:56.669Z,11.33
2023-05-11T04:54:24.990Z,11.42
2023-05-11T04:57:17.031Z,11.55
2023-05-11T04:59:47.165Z,11.68
2023-05-11T05:02:15.915Z,11.72
2023-05-11T05:04:45.931Z,11.80
2023-05-11T05:07:44.414Z,11.89
2023-05-11T05:10:33.821Z,11.94
2023-05-11T05:13:37.482Z,12.01
2023-05-11T05:16:40.165Z,12.19
2023-05-11T05:19:11.712Z,12.37
2023-05-11T05:21:40.228Z,12.57
2023-05-11T05:24:12.584Z,12.75
2023-05-11T05:27:24.844Z,13.01
2023-05-11T05:30:00.396Z,13.27
2023-05-11T05:32:51.206Z,13.40
2023-05-11T05:35:47.176Z,13.48
2023-05-11T05:38:16.176Z,13.67
2023-05-11T05:40:47.319Z,13.79
2023-05-11T05:43:18.357Z,13.75
2023-05-11T05:45:45.925Z,13.83
2023-05-11T05:48:16.316Z,13.96
2023-05-11T05:51:06.227Z,14.13
2023-05-11T05:53:59.573Z,14.35
2023-05-11T05:56:34.419Z,14.55
2023-05-11T05:59:23.151Z,14.75
2023-05-11T06:01:56.485Z,14.98
2023-05-11T06:04:25.705Z,15.18
2023-05-11T06:07:05.366Z,15.42
2023-05-11T06:09:34.351Z,15.73
2023-05-11T06:12:04.187Z,15.93
2023-05-11T06:14:32.968Z,16.11
2023-05-11T06:17:06.160Z,16.27
2023-05-11T06:19:35.849Z,16.43
2023-05-11T06:22:09.120Z,16.61
2023-05-11T06:24:40.163Z,16.86
2023-05-11T06:27:07.868Z,17.19
2023-05-11T06:29:39.555Z,17.52
2023-05-11T06:32:09.208Z,17.79
2023-05-11T06:34:36.332Z,18.12
2023-05-11T06:37:05.020Z,18.43
2023-05-11T06:39:39.330Z,18.70
2023-05-11T06:42:08.523Z,18.96
2023-05-11T06:44:35.633Z,19.22
2023-05-11T06:47:10.025Z,19.60
2023-05-11T06:49:38.305Z,19.89
2023-05-11T06:52:05.911Z,20.08
2023-05-11T06:54:33.588Z,20.39
2023-05-11T06:57:03.165Z,20.74
2023-05-11T06:59:32.592Z,21.03
2023-05-11T07:02:01.689Z,21.16
2023-05-11T07:04:29.845Z,21.46
2023-05-11T07:06:57.488Z,21.72
2023-05-11T07:09:25.082Z,21.83
2023-05-11T07:11:52.638Z,22.00
2023-05-11T07:14:19.712Z,22.23
2023-05-11T07:16:53.598Z,22.48
2023-05-11T07:19:24.321Z,22.76
2023-05-11T07:21:52.414Z,22.92
2023-05-11T07:24:20.589Z,23.05
2023-05-11T07:26:49.717Z,23.17
2023-05-11T07:29:19.708Z,23.30
2023-05-11T07:31:49.676Z,23.47
2023-05-11T07:34:18.888Z,23.37
2023-05-11T07:36:47.084Z,23.09
2023-05-11T07:39:17.859Z,22.48
2023-05-11T07:41:52.081Z,21.72
2023-05-11T07:44:19.688Z,21.03
2023-05-11T07:46:48.320Z,20.56
2023-05-11T07:49:20.824Z,20.50
2023-05-11T07:51:59.944Z,20.62
2023-05-11T07:54:27.716Z,20.90
2023-05-11T07:56:55.131Z,21.21
2023-05-11T07:59:22.265Z,21.32
2023-05-11T08:01:50.633Z,21.14
2023-05-11T08:04:18.703Z,20.93
2023-05-11T08:06:47.857Z,20.54
2023-05-11T08:09:16.462Z,20.04
2023-05-11T08:11:44.084Z,19.59
2023-05-11T08:14:13.024Z,19.21
2023-05-11T08:16:40.687Z,18.92
2023-05-11T08:19:10.729Z,18.91
2023-05-11T08:21:38.159Z,18.96
2023-05-11T08:24:05.569Z,19.11
2023-05-11T08:26:39.316Z,19.34
2023-05-11T08:29:07.849Z,19.54
2023-05-11T08:31:42.063Z,19.75
2023-05-11T08:34:18.688Z,19.96
2023-05-11T08:36:50.647Z,19.98
2023-05-11T08:39:33.234Z,19.89
2023-05-11T08:42:09.408Z,19.76
2023-05-11T08:44:38.168Z,19.84
2023-05-11T08:49:41.365Z,19.96
2023-05-11T08:52:10.892Z,19.67
2023-05-11T08:54:54.141Z,19.19
2023-05-11T08:57:28.156Z,18.69
2023-05-11T08:59:55.173Z,18.40
2023-05-11T09:02:23.870Z,18.14
2023-05-11T09:04:52.065Z,17.91
2023-05-11T09:07:22.777Z,17.67
2023-05-11T09:09:49.788Z,17.48
2023-05-11T09:12:19.168Z,17.37
2023-05-11T09:14:51.351Z,17.39
2023-05-11T09:17:21.370Z,17.54
2023-05-11T09:20:03.693Z,17.62
2023-05-11T09:22:36.635Z,17.56
2023-05-11T09:25:06.405Z,17.40
2023-05-11T09:27:43.607Z,17.24
2023-05-11T09:30:28.101Z,17.11
2023-05-11T09:33:00.862Z,16.91
2023-05-11T09:35:34.843Z,16.73
2023-05-11T09:38:05.031Z,16.60
2023-05-11T09:40:39.553Z,16.49
2023-05-11T09:43:19.624Z,16.38
2023-05-11T09:45:50.208Z,16.29
2023-05-11T09:48:25.467Z,16.22
2023-05-11T09:51:07.407Z,16.16
2023-05-11T09:53:45.878Z,16.15
2023-05-11T09:56:15.683Z,16.18
2023-05-11T09:58:51.423Z,16.24
2023-05-11T10:01:29.104Z,16.32
2023-05-11T10:04:20.487Z,16.45
2023-05-11T10:06:52.634Z,16.61
2023-05-11T10:09:45.944Z,16.72
2023-05-11T10:12:14.795Z,16.82
2023-05-11T10:14:42.208Z,16.92
2023-05-11T10:17:10.156Z,16.96
2023-05-11T10:19:38.902Z,16.94
2023-05-11T10:22:07.023Z,16.85
2023-05-11T10:24:35.504Z,16.73
2023-05-11T10:27:03.567Z,16.68
2023-05-11T10:29:31.907Z,16.64
2023-05-11T10:32:00.690Z,16.60
2023-05-11T10:34:31.211Z,16.53
2023-05-11T10:37:08.979Z,16.51
2023-05-11T10:39:37.883Z,16.47
2023-05-11T10:42:44.432Z,16.42
2023-05-11T10:45:15.525Z,16.38
2023-05-11T10:48:23.976Z,16.32
2023-05-11T10:50:51.886Z,16.30
2023-05-11T10:53:31.522Z,16.31
2023-05-11T10:56:44.654Z,16.32
2023-05-11T10:59:22.155Z,16.33
2023-05-11T11:01:54.376Z,16.37
2023-05-11T11:04:22.778Z,16.42
2023-05-11T11:07:04.510Z,16.46
2023-05-11T11:09:56.041Z,16.49
2023-05-11T11:12:27.380Z,16.57
2023-05-11T11:14:55.964Z,16.65
2023-05-11T11:17:31.619Z,16.71
2023-05-11T11:20:03.609Z,16.77
2023-05-11T11:22:48.921Z,16.85
2023-05-11T11:25:53.955Z,16.96
2023-05-11T11:28:21.574Z,16.97
2023-05-11T11:30:48.969Z,16.97
2023-05-11T11:33:25.792Z,16.99
2023-05-11T11:35:55.775Z,16.99
2023-05-11T11:38:25.721Z,16.94
2023-05-11T11:40:54.432Z,16.92
2023-05-11T11:43:24.161Z,16.92
2023-05-11T11:46:13.186Z,16.89
2023-05-11T11:48:46.235Z,16.75
2023-05-11T11:51:13.507Z,16.67
2023-05-11T11:53:54.778Z,16.61
2023-05-11T11:56:21.676Z,16.58
2023-05-11T11:58:52.869Z,16.58
2023-05-11T12:01:27.193Z,16.55
2023-05-11T12:04:26.680Z,16.56
2023-05-11T12:06:58.992Z,16.63
2023-05-11T12:09:29.454Z,16.72
2023-05-11T12:11:57.574Z,16.80
2023-05-11T12:14:29.259Z,16.81
2023-05-11T12:17:01.268Z,16.78
2023-05-11T12:19:28.939Z,16.75
2023-05-11T12:21:56.742Z,16.69
2023-05-11T12:24:24.576Z,16.61
2023-05-11T12:26:56.514Z,16.56
2023-05-11T12:29:23.940Z,16.52
2023-05-11T12:31:51.742Z,16.47
2023-05-11T12:34:22.346Z,16.41
2023-05-11T12:36:53.582Z,16.35
2023-05-11T12:39:24.023Z,16.28
2023-05-11T12:41:52.794Z,16.20
2023-05-11T12:44:21.089Z,16.14
2023-05-11T12:46:51.445Z,16.07
2023-05-11T12:49:25.842Z,16.03
2023-05-11T12:52:07.395Z,16.00
2023-05-11T12:54:41.257Z,15.97
2023-05-11T12:57:40.730Z,15.96
2023-05-11T13:00:15.786Z,15.95
2023-05-11T13:02:53.485Z,15.96
2023-05-11T13:05:25.741Z,15.98
2023-05-11T13:08:05.280Z,15.98
2023-05-11T13:10:34.651Z,15.98
2023-05-11T13:13:03.613Z,15.98
2023-05-11T13:15:33.115Z,15.99
2023-05-11T13:18:03.522Z,16.01
2023-05-11T13:20:33.366Z,16.01
2023-05-11T13:23:13.762Z,15.99
2023-05-11T13:26:00.374Z,15.98
2023-05-11T13:28:28.077Z,15.97
2023-05-11T13:31:01.816Z,15.98
2023-05-11T13:33:29.538Z,15.99
2023-05-11T13:35:58.719Z,16.01
2023-05-11T13:38:30.019Z,16.02
2023-05-11T13:40:57.727Z,16.04
2023-05-11T13:43:26.732Z,16.06
2023-05-11T13:45:56.723Z,16.08
2023-05-11T13:48:24.508Z,16.09
2023-05-11T13:50:53.079Z,16.11
2023-05-11T13:53:20.948Z,16.14
2023-05-11T13:55:48.950Z,16.16
2023-05-11T13:58:17.729Z,16.18
2023-05-11T14:00:56.453Z,16.18
2023-05-11T14:03:37.218Z,16.22
2023-05-11T14:06:04.810Z,16.23
2023-05-11T14:08:32.638Z,16.26
2023-05-11T14:11:02.294Z,16.26
2023-05-11T14:13:30.385Z,16.25
2023-05-11T14:15:59.233Z,16.24
2023-05-11T14:18:27.484Z,16.21
2023-05-11T14:20:56.570Z,16.15
2023-05-11T14:23:34.350Z,16.11
2023-05-11T14:26:07.897Z,16.07
2023-05-11T14:28:38.706Z,16.00
2023-05-11T14:31:08.249Z,15.92
2023-05-11T14:33:37.080Z,15.85
2023-05-11T14:36:05.269Z,15.80
2023-05-11T14:38:32.907Z,15.75
2023-05-11T14:41:03.346Z,15.70
2023-05-11T14:43:32.546Z,15.67
2023-05-11T14:46:00.444Z,15.63
2023-05-11T14:48:32.775Z,15.59
2023-05-11T14:51:00.450Z,15.59
2023-05-11T14:53:28.929Z,15.59
2023-05-11T14:55:56.464Z,15.59
2023-05-11T14:58:24.058Z,15.61
2023-05-11T15:00:52.130Z,15.63
2023-05-11T15:03:21.091Z,15.66
2023-05-11T15:05:48.661Z,15.67
2023-05-11T15:08:29.177Z,15.68
2023-05-11T15:10:59.051Z,15.67
2023-05-11T15:13:30.431Z,15.67
2023-05-11T15:16:01.403Z,15.67
2023-05-11T15:18:30.996Z,15.66
2023-05-11T15:20:58.623Z,15.63
2023-05-11T15:23:28.466Z,15.61
2023-05-11T15:25:58.026Z,15.57
2023-05-11T15:28:25.990Z,15.53
2023-05-11T15:30:57.209Z,15.49
2023-05-11T15:33:24.537Z,15.44
2023-05-11T15:35:58.239Z,15.39
2023-05-11T15:38:32.015Z,15.35
2023-05-11T15:40:59.910Z,15.30
2023-05-11T15:43:43.377Z,15.24
2023-05-11T15:46:13.312Z,15.20
2023-05-11T15:48:42.199Z,15.16
2023-05-11T15:51:09.493Z,15.13
2023-05-11T15:53:52.189Z,15.11
2023-05-11T15:56:52.407Z,15.08
2023-05-11T15:59:22.560Z,15.05
2023-05-11T16:02:17.336Z,15.03
2023-05-11T16:04:55.108Z,15.01
2023-05-11T16:07:32.721Z,14.98
2023-05-11T16:10:18.492Z,14.96
2023-05-11T16:12:51.668Z,14.93
2023-05-11T16:15:20.085Z,14.89
2023-05-11T16:17:56.564Z,14.87
2023-05-11T16:21:04.939Z,14.81
2023-05-11T16:23:37.595Z,14.77
2023-05-11T16:26:29.039Z,14.74
2023-05-11T16:28:57.929Z,14.72
2023-05-11T16:31:26.323Z,14.70
2023-05-11T16:33:57.721Z,14.67
2023-05-11T16:36:25.702Z,14.63
2023-05-11T16:38:53.400Z,14.60
2023-05-11T16:41:39.606Z,14.56
2023-05-11T16:44:15.163Z,14.54
2023-05-11T16:46:43.415Z,14.51
2023-05-11T16:49:12.825Z,14.47
2023-05-11T16:51:43.930Z,14.43
2023-05-11T16:54:12.613Z,14.40
2023-05-11T16:56:40.759Z,14.37
2023-05-11T16:59:09.725Z,14.32
2023-05-11T17:01:38.684Z,14.29
2023-05-11T17:04:06.432Z,14.24
2023-05-11T17:06:34.967Z,14.18
2023-05-11T17:09:02.980Z,14.15
2023-05-11T17:11:32.010Z,14.11
2023-05-11T17:14:01.187Z,14.07
2023-05-11T17:16:44.277Z,14.03
2023-05-11T17:19:14.937Z,13.98
2023-05-11T17:21:48.521Z,13.92
2023-05-11T17:24:18.497Z,13.87
2023-05-11T17:26:48.534Z,13.83
2023-05-11T17:29:26.223Z,13.79
2023-05-11T17:31:55.995Z,13.75
2023-05-11T17:34:28.790Z,13.72
2023-05-11T17:36:57.112Z,13.68
2023-05-11T17:39:27.507Z,13.64
2023-05-11T17:41:55.953Z,13.59
2023-05-11T17:44:28.367Z,13.55
2023-05-11T17:46:57.305Z,13.51
2023-05-11T17:49:25.514Z,13.47
2023-05-11T17:51:55.758Z,13.43
2023-05-11T17:54:23.884Z,13.41
2023-05-11T17:56:55.259Z,13.38
2023-05-11T17:59:23.431Z,13.36
2023-05-11T18:01:58.539Z,13.34
2023-05-11T18:04:36.484Z,13.32
2023-05-11T18:07:20.419Z,13.29
2023-05-11T18:09:47.816Z,13.25
2023-05-11T18:12:20.436Z,13.24
2023-05-11T18:14:50.722Z,13.23
2023-05-11T18:17:19.971Z,13.19
2023-05-11T18:19:48.519Z,13.16
2023-05-11T18:22:18.427Z,13.14
2023-05-11T18:24:46.429Z,13.10
2023-05-11T18:27:25.541Z,13.08
2023-05-11T18:29:54.845Z,13.06
2023-05-11T18:32:25.425Z,13.03
2023-05-11T18:34:55.849Z,13.00
2023-05-11T18:37:24.130Z,12.96
2023-05-11T18:39:55.587Z,12.92
2023-05-11T18:42:25.102Z,12.89
2023-05-11T18:44:55.404Z,12.86
2023-05-11T18:47:30.905Z,12.83
2023-05-11T18:50:01.022Z,12.78
2023-05-11T18:52:29.205Z,12.74
2023-05-11T18:54:58.725Z,12.72
2023-05-11T18:57:27.001Z,12.69
2023-05-11T18:59:55.170Z,12.65
2023-05-11T19:02:23.656Z,12.63
2023-05-11T19:04:59.545Z,12.59
2023-05-11T19:07:28.165Z,12.57
2023-05-11T19:09:57.444Z,12.51
2023-05-11T19:12:27.585Z,12.47
2023-05-11T19:14:55.840Z,12.41
2023-05-11T19:17:25.177Z,12.34
2023-05-11T19:19:57.559Z,12.28
2023-05-11T19:22:25.309Z,12.21
2023-05-11T19:24:53.372Z,12.16
2023-05-11T19:27:24.649Z,12.12
2023-05-11T19:30:15.608Z,12.06
2023-05-11T19:32:53.355Z,11.98
2023-05-11T19:35:23.007Z,11.89
2023-05-11T19:37:52.749Z,11.79
2023-05-11T19:40:44.021Z,11.67
2023-05-11T19:43:14.563Z,11.55
2023-05-11T19:45:44.772Z,11.48
2023-05-11T19:48:14.433Z,11.45
2023-05-11T19:50:43.757Z,11.42
2023-05-11T19:53:12.791Z,11.37
2023-05-11T19:55:40.948Z,11.31
2023-05-11T19:58:20.153Z,11.27
2023-05-11T20:00:47.866Z,11.24
2023-05-11T20:03:18.226Z,11.19
2023-05-11T20:05:50.235Z,11.14
2023-05-11T20:08:21.014Z,11.10
2023-05-11T20:10:48.793Z,11.05
2023-05-11T20:13:17.482Z,11.00
2023-05-11T20:15:46.414Z,10.96
2023-05-11T20:18:15.363Z,10.91
2023-05-11T20:20:44.149Z,10.87
2023-05-11T20:23:11.392Z,10.83
2023-05-11T20:25:43.188Z,10.80
2023-05-11T20:28:13.930Z,10.77
2023-05-11T20:30:42.155Z,10.74
2023-05-11T20:35:41.215Z,10.69
2023-05-11T20:38:09.252Z,10.67
2023-05-11T20:40:38.065Z,10.65
2023-05-11T20:43:06.081Z,10.62
2023-05-11T20:45:35.523Z,10.57
2023-05-11T20:48:03.787Z,10.54
2023-05-11T20:50:32.176Z,10.51
2023-05-11T20:53:00.184Z,10.48
2023-05-11T20:55:30.034Z,10.45
2023-05-11T20:57:57.412Z,10.39
2023-05-11T21:00:24.961Z,10.33
2023-05-11T21:02:55.112Z,10.27
2023-05-11T21:05:24.831Z,10.21
2023-05-11T21:07:55.466Z,10.18
2023-05-11T21:10:24.487Z,10.15
2023-05-11T21:12:52.369Z,10.15
2023-05-11T21:15:19.567Z,10.14
2023-05-11T21:17:46.594Z,10.12
2023-05-11T21:20:16.968Z,10.09
2023-05-11T21:22:44.220Z,10.05
2023-05-11T21:25:12.270Z,9.99
2023-05-11T21:27:41.109Z,9.93
2023-05-11T21:30:10.537Z,9.89
2023-05-11T21:32:38.163Z,9.86
2023-05-11T21:35:07.158Z,9.84
2023-05-11T21:37:35.864Z,9.81
2023-05-11T21:40:03.509Z,9.78
2023-05-11T21:42:34.032Z,9.75
2023-05-11T21:45:06.153Z,9.71
2023-05-11T21:47:35.856Z,9.69
2023-05-11T21:50:06.966Z,9.66
2023-05-11T21:52:34.671Z,9.63
2023-05-11T21:55:01.724Z,9.60
2023-05-11T21:57:31.082Z,9.57
2023-05-11T21:59:58.755Z,9.53
2023-05-11T22:02:29.673Z,9.50
2023-05-11T22:05:00.303Z,9.48
2023-05-11T22:07:43.337Z,9.46
2023-05-11T22:10:12.956Z,9.44
2023-05-11T22:12:56.170Z,9.42
2023-05-11T22:15:25.046Z,9.41
2023-05-11T22:17:52.043Z,9.39
2023-05-11T22:20:19.622Z,9.38
2023-05-11T22:22:47.165Z,9.36
2023-05-11T22:25:14.268Z,9.33
2023-05-11T22:27:41.258Z,9.29
2023-05-11T22:30:08.974Z,9.25
2023-05-11T22:32:37.896Z,9.22
2023-05-11T22:35:07.410Z,9.17
2023-05-11T22:37:35.668Z,9.15
2023-05-11T22:40:05.356Z,9.13
2023-05-11T22:42:34.214Z,9.12
2023-05-11T22:45:02.388Z,9.11
2023-05-11T22:47:29.696Z,9.08
2023-05-11T22:49:58.761Z,9.10
2023-05-11T22:52:29.747Z,9.16
2023-05-11T22:54:58.766Z,9.24
2023-05-11T22:57:37.756Z,9.31
2023-05-11T23:00:31.615Z,9.36
2023-05-11T23:02:58.635Z,9.36
2023-05-11T23:05:25.915Z,9.35
2023-05-11T23:07:55.408Z,9.32
2023-05-11T23:10:23.066Z,9.29
2023-05-11T23:12:52.074Z,9.25
2023-05-11T23:15:19.023Z,9.20
2023-05-11T23:17:47.349Z,9.14
2023-05-11T23:20:14.447Z,9.08
2023-05-11T23:22:41.700Z,9.02
2023-05-11T23:25:09.971Z,8.95
2023-05-11T23:27:37.005Z,8.89
2023-05-11T23:30:08.516Z,8.82
2023-05-11T23:32:36.624Z,8.78
2023-05-11T23:35:04.810Z,8.74
2023-05-11T23:37:32.536Z,8.69
2023-05-11T23:40:00.175Z,8.62
2023-05-11T23:42:27.594Z,8.56
2023-05-11T23:44:54.553Z,8.48
2023-05-11T23:47:21.712Z,8.42
2023-05-11T23:49:51.066Z,8.41
2023-05-11T23:52:18.323Z,8.44
2023-05-11T23:54:45.396Z,8.50
2023-05-11T23:57:12.933Z,8.57
2023-05-11T23:59:41.178Z,8.63
